Mijn Webcam Meer informatie Mijn Webcam


webcam richting noord-oost Meer informatie webcam facing north-east


Regen radar Meer informatie rain snow radar


Bezoek onze andere website:

Template documentation
and downloads

And another site



METAR rapporten vliegvelden

   
EHGG - Groningen/Eelde
Gewijzigd: 24-09-2018 11:55
Licht bewolkt  
Licht bewolkt  
   Wind: NW 7.7 m/s
Wind: NW 7.7 m/s
Temperatuur: 13°C
Dauwpunt: 7°C
Vochtigheid: 67%
Barometer: 1030 hPa
Bewolking: Licht bewolkt
Zicht: meer dan 10 km
Bewolking: Licht bewolkt 1005.8 m
EHGG 240955Z AUTO 31015KT 280V350 9999 FEW033 13/07 Q1030 TEMPO 7000 -SHRA SCT030CB
EHMA - Schiermonnikoog
Gewijzigd: 24-09-2018 11:55
Gedeeltelijk bewolkt  
Gedeeltelijk bewolkt  
   Wind: NW 16.5 m/s
Wind: NW 16.5 m/s
Temperatuur: 13°C
Dauwpunt: 4°C
Vochtigheid: 55%
Barometer: 1030 hPa
Bewolking: Gedeeltelijk bewolkt
Zicht: meer dan 10 km
Bewolking: Licht bewolkt 853.4 m,
Gedeeltelijk bewolkt 1463 m
EHMA 240955Z AUTO 31032KT 9999 FEW028 SCT048 13/04 Q1030 W///H///
EHMG - Terschelling
Gewijzigd: 24-09-2018 11:55
Licht bewolkt  
Licht bewolkt  
   Wind: NW 14.9 m/s
Wind: NW 14.9 m/s
Temperatuur: 13°C
Dauwpunt: 6°C
Vochtigheid: 63%
Barometer: 1032 hPa
Bewolking: Licht bewolkt
Zicht: meer dan 10 km
Bewolking: Licht bewolkt 823 m
EHMG 240955Z AUTO 32029KT 9999 FEW027 13/06 Q1032 W///H///
EHVL - Vlieland
Gewijzigd: 24-09-2018 11:55
Wat regen mogelijk, Bewolking  
Wat regen mogelijk, Bewolking  
   Wind: NNW 8.7 m/s
Wind: NNW 8.7 m/s
Temperatuur: 12°C
Dauwpunt: 7°C
Vochtigheid: 72%
Barometer: 1032 hPa
Bewolking: Bewolking
Zicht: meer dan 10 km
Bewolking: Gedeeltelijk bewolkt 1036.3 m,
Grotendeels bewolkt 1158.2 m,
Bewolking 1402.1 m
EHVL 240955Z AUTO 33017KT 9999 -RA SCT034 BKN038 OVC046 12/07 Q1032 BLU
ETWM - Meppen, Germany
Gewijzigd: 24-09-2018 11:20
Nearby Showers, Licht bewolkt  
Nearby Showers, Licht bewolkt  
   Wind: Westen 3.6 m/s
Wind: Westen 3.6 m/s
Temperatuur: 13°C
Dauwpunt: 7°C
Vochtigheid: 67%
Barometer: 1030 hPa
Bewolking: Licht bewolkt
Zicht: meer dan 10 km
Bewolking: Licht bewolkt 823 m
ETWM 240920Z 27007KT 9999 VCSH FEW027CB 13/07 Q1030 BLU+
 

Script ontwikkeld door  Saratoga-weather.org Aangepast voor de template door  Weerstation Leuven

U vindt ons ook hier:

Het Weer Aktueel

UK Metoffice

European Weather Network

WeatherCloud

Weather Underground

AWEKAS

WeatherlinkIP

HAMweather, WeatherForYou, PWS Weather

  

Apparatuur in gebruik:

Weerstation
Davis VP2 Plus

Weerprogramma
Cumulus

Weercomputer
ASUS Eee Box B202

Webleverancier
Antagonist

Davis VP2 Plus

Cumulus

ASUS Eee Box B202

Antagonist